Anna, Ohio
Current Conditions -  °F | °C
As of 5:33 AM on Saturday 22 Nov 2014 (Local Time) from KAXV Reporting Station
Overcast Overcast  
Wind Chill: 24°   Ceiling: 3800
Heat Index: 34°   Visibility: 10mi
Dew Point: 25°   Wind: 16mph
Humidity: 70%   Direction: 190°S
Pressure: 30.23"   Gusts: 23mph
Location:  40.39°N, 84.17°W
Report Text: KAXV 221033Z AUTO 19014G20KT 10SM BKN038 OVC044 01/M04 A3023 RMK AO2
Loading
Personal Weather Stations






























Interactive Weather Map New forecast layout! Learn more

10-Day Weather Forecast

Advertisements
Track Severe Weather on mobile